Time;durP1;ratioP1;P1;durP2;ratioP2;P2;SDS_P1;SDS_P2;PMS_P1;PMS_P2;Temp;Humidity;BMP_temperature;BMP_pressure;BME280_temperature;BME280_humidity;BME280_pressure;Samples;Min_cycle;Max_cycle;Signal;HPM_P1;HPM_P2
2023/07/29 00:00:49;;;;;;;1.83;1.27;;;;;;;19.87;nan;98998.91;4974152;28;20225;-77
2023/07/29 00:03:15;;;;;;;1.70;1.47;;;;;;;19.83;nan;99006.41;4972918;28;20213;-79
2023/07/29 00:05:40;;;;;;;1.40;1.07;;;;;;;19.83;nan;99018.94;4971594;28;20542;-78
2023/07/29 00:08:06;;;;;;;5.67;2.00;;;;;;;19.79;nan;99013.09;4972599;28;20208;-78
2023/07/29 00:10:33;;;;;;;4.90;1.80;;;;;;;19.78;nan;98999.94;4972464;28;20227;-79
2023/07/29 00:12:59;;;;;;;1.80;1.47;;;;;;;19.77;nan;98998.31;4973108;28;20218;-80
2023/07/29 00:15:24;;;;;;;1.93;1.30;;;;;;;19.73;nan;98987.13;4967763;28;20513;-77
2023/07/29 00:17:49;;;;;;;1.30;1.10;;;;;;;19.70;nan;98991.97;4969164;28;20466;-77
2023/07/29 00:20:15;;;;;;;1.77;1.27;;;;;;;19.69;nan;98998.31;4970058;28;20313;-77
2023/07/29 00:22:41;;;;;;;3.27;1.50;;;;;;;19.65;nan;98979.97;4975522;28;20708;-78
2023/07/29 00:25:07;;;;;;;4.17;1.90;;;;;;;19.62;nan;98982.97;4972160;28;20225;-78
2023/07/29 00:27:32;;;;;;;1.70;1.10;;;;;;;19.62;nan;98980.31;4971560;28;20207;-79
2023/07/29 00:29:57;;;;;;;1.10;1.00;;;;;;;19.63;nan;98987.31;4974154;28;20967;-77
2023/07/29 00:32:23;;;;;;;1.70;1.23;;;;;;;19.61;nan;98989.31;4967748;28;20224;-77
2023/07/29 00:34:48;;;;;;;1.67;1.50;;;;;;;19.61;nan;98983.97;4971844;28;20696;-78
2023/07/29 00:37:14;;;;;;;6.90;1.30;;;;;;;19.63;nan;98984.66;4946408;28;20206;-78
2023/07/29 00:39:39;;;;;;;2.10;1.70;;;;;;;19.65;nan;98982.63;4972665;28;20598;-80
2023/07/29 00:42:05;;;;;;;1.90;1.30;;;;;;;19.67;nan;98978.00;4959281;28;20255;-80
2023/07/29 00:44:31;;;;;;;1.40;1.30;;;;;;;19.69;nan;98979.66;4972650;28;20209;-78
2023/07/29 00:47:03;;;;;;;1.70;1.20;;;;;;;19.66;nan;98979.00;4959558;28;20481;-77
2023/07/29 00:49:29;;;;;;;1.80;1.50;;;;;;;19.66;nan;98983.50;4971426;28;20424;-79
2023/07/29 00:51:54;;;;;;;2.10;1.20;;;;;;;19.65;nan;98976.47;4972342;28;20506;-78
2023/07/29 00:54:20;;;;;;;2.00;1.47;;;;;;;19.63;nan;98987.31;4970763;28;20209;-80
2023/07/29 00:56:45;;;;;;;3.87;1.37;;;;;;;19.61;nan;98983.16;4971733;28;20217;-80
2023/07/29 00:59:11;;;;;;;3.03;1.20;;;;;;;19.57;nan;98979.97;4972421;28;20297;-77
2023/07/29 01:01:37;;;;;;;3.30;1.23;;;;;;;19.54;nan;98979.50;4954470;28;20488;-77
2023/07/29 01:04:02;;;;;;;1.87;1.07;;;;;;;19.51;nan;98975.34;4944655;28;20202;-78
2023/07/29 01:06:54;;;;;;;3.47;1.40;;;;;;;19.52;nan;98984.16;4968286;28;20227;-78
2023/07/29 01:09:45;;;;;;;3.30;1.20;;;;;;;19.52;nan;98974.31;4973097;28;20235;-80
2023/07/29 01:12:22;;;;;;;13.63;1.80;;;;;;;19.46;nan;98972.34;4970391;28;20478;-79
2023/07/29 01:15:06;;;;;;;6.30;1.43;;;;;;;19.43;nan;98975.38;4969294;28;20690;-78
2023/07/29 01:17:36;;;;;;;1.60;1.30;;;;;;;19.38;nan;98975.88;4971114;28;20484;-78
2023/07/29 01:20:08;;;;;;;1.57;1.20;;;;;;;19.37;nan;98968.06;4970519;28;20845;-78
2023/07/29 01:22:37;;;;;;;6.90;2.17;;;;;;;19.37;nan;98960.91;4966275;28;20444;-80
2023/07/29 01:25:06;;;;;;;2.77;1.93;;;;;;;19.40;nan;98960.56;4971430;28;20614;-77
2023/07/29 01:27:32;;;;;;;1.87;1.23;;;;;;;19.43;nan;98960.22;4953326;28;20460;-78
2023/07/29 01:29:58;;;;;;;2.43;2.20;;;;;;;19.46;nan;98972.34;4953132;28;20505;-77
2023/07/29 01:32:46;;;;;;;1.90;1.60;;;;;;;19.46;nan;98962.53;4969616;28;20943;-78
2023/07/29 01:35:21;;;;;;;2.10;1.85;;;;;;;19.47;nan;98968.72;4970344;28;20488;-79
2023/07/29 01:37:51;;;;;;;2.27;1.40;;;;;;;19.46;nan;98965.19;4970147;28;20232;-77
2023/07/29 01:40:18;;;;;;;1.80;1.70;;;;;;;19.50;nan;98965.69;4970653;28;21240;-78
2023/07/29 01:42:45;;;;;;;1.40;1.30;;;;;;;19.52;nan;98963.69;4967297;28;20475;-77
2023/07/29 01:45:10;;;;;;;2.10;1.37;;;;;;;19.55;nan;98965.16;4969808;28;20464;-79
2023/07/29 01:47:38;;;;;;;1.87;1.10;;;;;;;19.57;nan;98965.84;4966187;28;20475;-79
2023/07/29 01:50:04;;;;;;;2.13;1.47;;;;;;;19.56;nan;98962.34;4969817;28;20219;-76
2023/07/29 01:52:29;;;;;;;2.17;1.60;;;;;;;19.56;nan;98959.69;4950537;28;20472;-77
2023/07/29 01:54:54;;;;;;;3.00;1.30;;;;;;;19.56;nan;98949.03;4968203;28;20418;-79
2023/07/29 01:57:20;;;;;;;2.17;1.30;;;;;;;19.54;nan;98956.34;4971380;28;20221;-79
2023/07/29 01:59:45;;;;;;;3.00;1.63;;;;;;;19.54;nan;98953.69;4968029;28;20222;-79
2023/07/29 02:02:11;;;;;;;3.53;1.37;;;;;;;19.53;nan;98954.69;4966815;28;20292;-76
2023/07/29 02:04:37;;;;;;;2.47;1.30;;;;;;;19.51;nan;98948.72;4969357;28;20474;-76
2023/07/29 02:07:03;;;;;;;3.30;1.42;;;;;;;19.53;nan;98952.03;4950910;28;20440;-77
2023/07/29 02:09:29;;;;;;;4.80;1.70;;;;;;;19.53;nan;98946.72;4969460;28;20218;-76
2023/07/29 02:11:54;;;;;;;2.83;1.50;;;;;;;19.54;nan;98955.53;4950568;28;20768;-77
2023/07/29 02:14:19;;;;;;;4.17;1.40;;;;;;;19.55;nan;98949.19;4967553;28;20461;-77
2023/07/29 02:16:45;;;;;;;1.67;1.43;;;;;;;19.56;nan;98951.69;4968740;28;20644;-78
2023/07/29 02:19:10;;;;;;;2.03;1.50;;;;;;;19.58;nan;98957.69;4944750;28;20257;-77
2023/07/29 02:21:36;;;;;;;1.87;1.63;;;;;;;19.61;nan;98964.50;4966736;28;20218;-77
2023/07/29 02:24:01;;;;;;;4.30;1.77;;;;;;;19.62;nan;98963.50;4965918;28;20202;-80
2023/07/29 02:26:27;;;;;;;1.83;1.10;;;;;;;19.62;nan;98960.81;4967080;28;20687;-79
2023/07/29 02:28:52;;;;;;;4.23;1.47;;;;;;;19.60;nan;98950.31;4967547;28;20208;-77
2023/07/29 02:31:21;;;;;;;1.97;1.50;;;;;;;19.55;nan;98950.03;4946757;28;20221;-78
2023/07/29 02:33:47;;;;;;;2.20;1.73;;;;;;;19.52;nan;98947.69;4942054;28;20869;-78
2023/07/29 02:36:13;;;;;;;2.30;1.70;;;;;;;19.53;nan;98945.88;4942715;28;20478;-77
2023/07/29 02:38:40;;;;;;;2.30;1.60;;;;;;;19.52;nan;98942.38;4968599;28;20251;-78
2023/07/29 02:41:06;;;;;;;1.90;1.27;;;;;;;19.54;nan;98928.88;4950222;28;20998;-79
2023/07/29 02:43:31;;;;;;;1.77;1.33;;;;;;;19.56;nan;98938.38;4966245;28;20433;-79
2023/07/29 02:45:57;;;;;;;6.80;1.50;;;;;;;19.59;nan;98935.34;4970685;28;20607;-79
2023/07/29 02:48:22;;;;;;;2.60;1.90;;;;;;;19.59;nan;98938.03;4971518;28;20225;-78
2023/07/29 02:50:48;;;;;;;1.40;1.20;;;;;;;19.60;nan;98939.66;4972759;28;20229;-79
2023/07/29 02:53:13;;;;;;;1.53;1.30;;;;;;;19.60;nan;98928.19;4971846;28;20207;-79
2023/07/29 02:55:42;;;;;;;1.80;1.50;;;;;;;19.61;nan;98925.38;4949746;28;20223;-78
2023/07/29 02:58:07;;;;;;;2.70;1.30;;;;;;;19.62;nan;98920.88;4966580;28;20768;-77
2023/07/29 03:00:33;;;;;;;5.43;1.90;;;;;;;19.63;nan;98922.50;4969243;28;20510;-77
2023/07/29 03:02:59;;;;;;;1.60;1.40;;;;;;;19.62;nan;98937.69;4968293;28;20215;-79
2023/07/29 03:05:27;;;;;;;2.70;1.67;;;;;;;19.60;nan;98923.69;4954146;28;20238;-79
2023/07/29 03:07:53;;;;;;;4.60;1.60;;;;;;;19.60;nan;98921.03;4971410;28;20520;-79
2023/07/29 03:10:18;;;;;;;1.60;1.23;;;;;;;19.61;nan;98927.22;4971754;28;20592;-76
2023/07/29 03:12:44;;;;;;;1.77;1.50;;;;;;;19.60;nan;98937.00;4961142;28;20217;-77
2023/07/29 03:15:09;;;;;;;5.30;1.60;;;;;;;19.59;nan;98922.03;4961207;28;20624;-79
2023/07/29 03:17:35;;;;;;;2.87;1.60;;;;;;;19.58;nan;98917.72;4970390;28;20220;-77
2023/07/29 03:20:00;;;;;;;3.27;2.10;;;;;;;19.55;nan;98915.41;4972703;28;20652;-78
2023/07/29 03:22:26;;;;;;;2.27;1.50;;;;;;;19.54;nan;98903.06;4973936;28;20220;-77
2023/07/29 03:24:51;;;;;;;3.20;1.60;;;;;;;19.54;nan;98899.59;4970367;28;20242;-78
2023/07/29 03:27:17;;;;;;;1.30;1.20;;;;;;;19.51;nan;98903.44;4970279;28;20270;-78
2023/07/29 03:29:42;;;;;;;5.33;1.60;;;;;;;19.51;nan;98908.75;4959417;28;20580;-78
2023/07/29 03:32:07;;;;;;;3.10;1.67;;;;;;;19.51;nan;98907.94;4969915;28;20293;-79
2023/07/29 03:34:33;;;;;;;1.60;1.50;;;;;;;19.49;nan;98910.75;4970645;28;20213;-79
2023/07/29 03:37:01;;;;;;;5.18;2.05;;;;;;;19.51;nan;98918.59;4945479;28;20902;-77
2023/07/29 03:39:26;;;;;;;1.97;1.50;;;;;;;19.46;nan;98913.75;4971829;28;20289;-78
2023/07/29 03:41:52;;;;;;;1.77;1.33;;;;;;;19.40;nan;98923.28;4958593;28;21066;-77
2023/07/29 03:44:18;;;;;;;2.67;1.80;;;;;;;19.36;nan;98921.97;4971017;28;20860;-79
2023/07/29 03:46:44;;;;;;;2.57;1.30;;;;;;;19.33;nan;98914.28;4952653;28;20919;-77
2023/07/29 03:49:10;;;;;;;2.40;1.40;;;;;;;19.34;nan;98917.81;4969661;28;20811;-77
2023/07/29 03:51:36;;;;;;;1.37;1.27;;;;;;;19.34;nan;98913.31;4959942;28;20471;-78
2023/07/29 03:54:01;;;;;;;1.60;1.50;;;;;;;19.35;nan;98912.28;4969184;28;20524;-77
2023/07/29 03:56:27;;;;;;;2.30;2.10;;;;;;;19.37;nan;98909.47;4969144;28;20215;-79
2023/07/29 03:58:52;;;;;;;2.10;1.90;;;;;;;19.39;nan;98913.63;4970385;28;20225;-79
2023/07/29 04:01:18;;;;;;;1.83;1.40;;;;;;;19.41;nan;98905.44;4969096;28;20228;-77
2023/07/29 04:03:46;;;;;;;3.20;1.70;;;;;;;19.40;nan;98903.81;4969667;28;21125;-78
2023/07/29 04:06:12;;;;;;;2.90;1.40;;;;;;;19.42;nan;98907.13;4949336;28;20458;-77
2023/07/29 04:08:37;;;;;;;3.30;2.03;;;;;;;19.44;nan;98910.44;4968672;28;20206;-77
2023/07/29 04:11:03;;;;;;;4.43;1.90;;;;;;;19.46;nan;98905.78;4959839;28;20487;-78
2023/07/29 04:13:28;;;;;;;3.17;1.70;;;;;;;19.49;nan;98901.94;4946828;28;20209;-77
2023/07/29 04:15:54;;;;;;;1.63;1.53;;;;;;;19.46;nan;98893.28;4945344;28;20217;-77
2023/07/29 04:18:19;;;;;;;3.67;1.77;;;;;;;19.45;nan;98898.78;4969688;28;20219;-77
2023/07/29 04:20:46;;;;;;;4.77;1.80;;;;;;;19.43;nan;98911.44;4960101;28;20732;-79
2023/07/29 04:23:11;;;;;;;3.23;2.43;;;;;;;19.42;nan;98915.13;4971179;28;20730;-79
2023/07/29 04:25:37;;;;;;;2.37;1.53;;;;;;;19.45;nan;98925.44;4951689;28;20264;-77
2023/07/29 04:28:04;;;;;;;1.67;1.33;;;;;;;19.47;nan;98926.09;4971282;28;20259;-78
2023/07/29 04:30:30;;;;;;;3.03;1.97;;;;;;;19.48;nan;98924.25;4966025;28;20273;-77
2023/07/29 04:32:55;;;;;;;1.83;1.53;;;;;;;19.49;nan;98925.91;4966475;28;20448;-78
2023/07/29 04:35:20;;;;;;;2.30;1.40;;;;;;;19.49;nan;98929.38;4967195;28;20441;-77
2023/07/29 04:37:47;;;;;;;3.80;1.50;;;;;;;19.51;nan;98916.75;4959660;28;20219;-76
2023/07/29 04:40:13;;;;;;;2.13;1.60;;;;;;;19.51;nan;98929.22;4970483;28;20216;-77
2023/07/29 04:42:39;;;;;;;3.10;1.70;;;;;;;19.52;nan;98934.38;4971986;28;20426;-78
2023/07/29 04:45:05;;;;;;;2.53;1.70;;;;;;;19.55;nan;98935.88;4971326;28;20401;-79
2023/07/29 04:47:31;;;;;;;2.47;1.67;;;;;;;19.59;nan;98932.69;4958575;28;20209;-78
2023/07/29 04:49:57;;;;;;;1.60;1.50;;;;;;;19.64;nan;98930.34;4971834;28;20474;-79
2023/07/29 04:52:22;;;;;;;3.10;2.13;;;;;;;19.70;nan;98928.03;4952053;28;20933;-77
2023/07/29 04:54:48;;;;;;;3.43;1.40;;;;;;;19.74;nan;98932.00;4960088;28;20240;-77
2023/07/29 04:57:13;;;;;;;1.47;1.37;;;;;;;19.77;nan;98945.00;4950535;28;20210;-77
2023/07/29 04:59:38;;;;;;;2.00;1.47;;;;;;;19.81;nan;98940.97;4970626;28;20592;-77
2023/07/29 05:02:04;;;;;;;1.70;1.43;;;;;;;19.85;nan;98948.47;4971700;28;20303;-77
2023/07/29 05:04:29;;;;;;;3.57;1.77;;;;;;;19.88;nan;98947.28;4959662;28;20668;-78
2023/07/29 05:06:55;;;;;;;2.70;1.60;;;;;;;19.95;nan;98945.56;4968518;28;20807;-79
2023/07/29 05:09:21;;;;;;;5.63;1.60;;;;;;;19.98;nan;98947.91;4971913;28;20215;-78
2023/07/29 05:11:48;;;;;;;1.80;1.50;;;;;;;20.01;nan;98952.03;4946808;28;20215;-77
2023/07/29 05:14:15;;;;;;;3.73;1.67;;;;;;;20.02;nan;98945.72;4973500;28;20471;-79
2023/07/29 05:16:41;;;;;;;3.07;2.00;;;;;;;20.01;nan;98950.22;4949349;28;21001;-77
2023/07/29 05:19:07;;;;;;;3.50;1.67;;;;;;;20.01;nan;98947.56;4965820;28;20485;-77
2023/07/29 05:21:33;;;;;;;1.80;1.70;;;;;;;20.02;nan;98951.88;4954571;28;20470;-78
2023/07/29 05:23:59;;;;;;;1.60;1.50;;;;;;;20.06;nan;98961.19;4963868;28;20704;-78
2023/07/29 05:26:24;;;;;;;2.40;1.73;;;;;;;20.09;nan;98957.31;4941407;28;20546;-78
2023/07/29 05:28:50;;;;;;;2.73;1.70;;;;;;;20.11;nan;98953.47;4943907;28;20202;-80
2023/07/29 05:31:15;;;;;;;5.40;1.60;;;;;;;20.13;nan;98968.47;4963861;28;20226;-80
2023/07/29 05:33:41;;;;;;;2.73;2.10;;;;;;;20.10;nan;98975.81;4960063;28;20212;-80
2023/07/29 05:36:06;;;;;;;2.90;1.90;;;;;;;20.11;nan;98982.81;4936054;28;20882;-77
2023/07/29 05:38:32;;;;;;;2.13;1.93;;;;;;;20.14;nan;98978.13;4964042;28;20491;-79
2023/07/29 05:40:57;;;;;;;2.33;1.87;;;;;;;20.16;nan;98984.13;4968219;28;20222;-77
2023/07/29 05:43:24;;;;;;;3.70;1.90;;;;;;;20.18;nan;98974.13;4968679;28;20814;-78
2023/07/29 05:45:50;;;;;;;2.23;2.03;;;;;;;20.25;nan;98985.75;4944325;28;20217;-77
2023/07/29 05:48:17;;;;;;;1.60;1.50;;;;;;;20.30;nan;98986.88;4957552;28;20466;-77
2023/07/29 05:50:43;;;;;;;3.60;2.43;;;;;;;20.35;nan;98975.69;4974365;28;20468;-80
2023/07/29 05:53:09;;;;;;;3.67;2.50;;;;;;;20.42;nan;98973.16;4966722;28;20441;-80
2023/07/29 05:55:34;;;;;;;3.60;2.80;;;;;;;20.51;nan;98980.91;4969331;28;20218;-80
2023/07/29 05:58:00;;;;;;;9.43;5.73;;;;;;;20.61;nan;98993.25;4945624;28;20724;-80
2023/07/29 06:00:26;;;;;;;4.30;2.60;;;;;;;20.69;nan;98990.53;4945882;28;20266;-77
2023/07/29 06:02:52;;;;;;;4.23;2.30;;;;;;;20.76;nan;98991.44;4959106;28;21094;-77
2023/07/29 06:05:20;;;;;;;3.40;2.23;;;;;;;20.81;nan;98989.09;4951188;28;20205;-77
2023/07/29 06:07:47;;;;;;;3.30;2.40;;;;;;;20.83;nan;99000.41;4950221;28;20458;-78
2023/07/29 06:10:17;;;;;;;2.33;2.03;;;;;;;20.85;nan;98994.91;4967532;28;20244;-80
2023/07/29 06:12:43;;;;;;;3.00;2.30;;;;;;;20.85;nan;98998.41;4958567;28;20598;-76
2023/07/29 06:15:09;;;;;;;5.10;4.03;;;;;;;20.86;nan;98999.22;4973939;28;20444;-78
2023/07/29 06:17:34;;;;;;;3.07;2.43;;;;;;;20.84;nan;99002.06;4973435;28;20460;-70
2023/07/29 06:20:00;;;;;;;4.90;2.73;;;;;;;20.81;nan;99012.28;4950917;28;20539;-78
2023/07/29 06:22:25;;;;;;;5.50;3.13;;;;;;;20.76;nan;99010.97;4950355;28;20230;-77
2023/07/29 06:24:50;;;;;;;4.80;3.13;;;;;;;20.71;nan;98993.81;4968091;28;20234;-75
2023/07/29 06:27:16;;;;;;;5.00;3.00;;;;;;;20.67;nan;99006.69;4958999;28;20321;-79
2023/07/29 06:29:41;;;;;;;3.10;2.63;;;;;;;20.66;nan;99007.72;4961698;28;20557;-76
2023/07/29 06:32:07;;;;;;;2.33;1.90;;;;;;;20.68;nan;98997.66;4961204;28;20216;-80
2023/07/29 06:34:32;;;;;;;4.68;2.70;;;;;;;20.72;nan;98999.00;4959747;28;20437;-80
2023/07/29 06:36:58;;;;;;;3.20;2.40;;;;;;;20.80;nan;98994.63;4957110;28;20508;-79
2023/07/29 06:39:23;;;;;;;3.40;2.70;;;;;;;20.83;nan;99000.41;4958287;28;20418;-80
2023/07/29 06:41:48;;;;;;;3.60;2.03;;;;;;;20.89;nan;98993.53;4962200;28;20233;-76
2023/07/29 06:44:17;;;;;;;5.23;3.43;;;;;;;20.96;nan;99008.66;4936882;28;20272;-76
2023/07/29 06:46:42;;;;;;;5.73;2.97;;;;;;;21.07;nan;99011.91;4969760;28;20476;-77
2023/07/29 06:49:07;;;;;;;4.53;2.80;;;;;;;21.16;nan;99003.63;4965929;28;20205;-76
2023/07/29 06:51:34;;;;;;;2.67;2.17;;;;;;;21.27;nan;99001.56;4969784;28;20230;-78
2023/07/29 06:54:01;;;;;;;5.97;4.33;;;;;;;21.39;nan;98998.31;4969477;28;20222;-78
2023/07/29 06:56:26;;;;;;;4.43;3.47;;;;;;;21.57;nan;98999.78;4968379;28;20897;-79
2023/07/29 06:58:52;;;;;;;5.30;3.40;;;;;;;21.83;nan;98994.81;4967463;28;20485;-79
2023/07/29 07:01:17;;;;;;;4.70;3.90;;;;;;;22.39;nan;98993.47;4968040;28;20221;-76
2023/07/29 07:03:43;;;;;;;5.47;4.00;;;;;;;23.18;nan;98994.25;4967931;28;20412;-76
2023/07/29 07:06:08;;;;;;;4.93;3.40;;;;;;;24.19;nan;98987.66;4967578;28;20945;-79
2023/07/29 07:08:33;;;;;;;3.70;2.93;;;;;;;25.14;nan;98992.03;4967102;28;20196;-76
2023/07/29 07:10:59;;;;;;;2.70;2.27;;;;;;;26.04;nan;98986.09;4967538;28;20294;-79
2023/07/29 07:13:24;;;;;;;3.10;1.50;;;;;;;26.74;nan;98980.78;4968485;28;20194;-80
2023/07/29 07:15:50;;;;;;;2.57;1.80;;;;;;;27.32;nan;98977.84;4966829;28;22493;-77
2023/07/29 07:18:15;;;;;;;3.63;2.40;;;;;;;27.80;nan;98976.38;4967193;28;20238;-79
2023/07/29 07:20:40;;;;;;;2.10;1.90;;;;;;;28.36;nan;98972.56;4969293;28;20621;-77
2023/07/29 07:23:10;;;;;;;2.47;1.50;;;;;;;28.69;nan;98979.41;4967968;28;20212;-78
2023/07/29 07:25:36;;;;;;;1.93;1.50;;;;;;;28.63;nan;98975.75;4967523;28;20192;-78
2023/07/29 07:28:01;;;;;;;3.33;1.37;;;;;;;28.77;nan;98979.06;4967630;28;20572;-77
2023/07/29 07:30:26;;;;;;;1.83;1.40;;;;;;;29.01;nan;98971.00;4969771;28;20219;-77
2023/07/29 07:32:52;;;;;;;1.93;1.57;;;;;;;28.92;nan;98981.31;4970379;28;20200;-79
2023/07/29 07:35:18;;;;;;;1.90;1.50;;;;;;;28.80;nan;98972.38;4971099;28;20495;-77
2023/07/29 07:37:44;;;;;;;2.00;1.80;;;;;;;28.98;nan;98974.19;4969493;28;20829;-79
2023/07/29 07:40:10;;;;;;;1.70;1.37;;;;;;;29.08;nan;98969.88;4970927;28;21021;-77
2023/07/29 07:42:35;;;;;;;3.53;1.70;;;;;;;29.25;nan;98983.53;4968375;28;20559;-77
2023/07/29 07:45:01;;;;;;;2.40;1.80;;;;;;;29.39;nan;98975.19;4971106;28;20193;-80
2023/07/29 07:47:26;;;;;;;2.30;1.77;;;;;;;29.24;nan;98970.22;4969470;28;20295;-80
2023/07/29 07:49:52;;;;;;;2.40;1.30;;;;;;;29.06;nan;98976.56;4969843;28;20236;-78
2023/07/29 07:52:17;;;;;;;2.63;1.53;;;;;;;28.87;nan;98979.34;4969187;28;20212;-78
2023/07/29 07:54:42;;;;;;;3.23;1.43;;;;;;;28.69;nan;98971.28;4968834;28;20299;-79
2023/07/29 07:57:08;;;;;;;2.00;1.60;;;;;;;28.64;nan;98966.56;4967696;28;20209;-77
2023/07/29 07:59:33;;;;;;;2.60;1.70;;;;;;;28.59;nan;98965.63;4968390;28;20240;-78
2023/07/29 08:01:58;;;;;;;1.73;1.60;;;;;;;28.41;nan;98966.47;4972917;28;20741;-78
2023/07/29 08:04:24;;;;;;;2.20;1.50;;;;;;;28.29;nan;98963.72;4972678;28;20219;-78
2023/07/29 08:06:49;;;;;;;2.50;2.10;;;;;;;28.05;nan;98960.06;4968675;28;20521;-78
2023/07/29 08:09:14;;;;;;;2.40;1.10;;;;;;;27.87;nan;98971.72;4970438;28;20214;-78
2023/07/29 08:11:40;;;;;;;3.00;1.63;;;;;;;28.02;nan;98968.63;4971481;28;20206;-78
2023/07/29 08:14:05;;;;;;;2.27;1.80;;;;;;;28.30;nan;98965.38;4968286;28;20867;-78
2023/07/29 08:16:31;;;;;;;2.47;1.43;;;;;;;28.16;nan;98956.59;4971827;28;20236;-78
2023/07/29 08:18:56;;;;;;;6.83;2.13;;;;;;;27.76;nan;98969.72;4969970;28;20225;-79
2023/07/29 08:21:21;;;;;;;2.40;1.57;;;;;;;27.34;nan;98975.75;4969068;28;20424;-79
2023/07/29 08:23:47;;;;;;;1.70;1.60;;;;;;;26.92;nan;98964.72;4970469;28;20198;-79
2023/07/29 08:26:12;;;;;;;2.53;1.90;;;;;;;26.53;nan;98973.88;4970970;28;20214;-79
2023/07/29 08:28:39;;;;;;;4.10;2.03;;;;;;;26.47;nan;98978.22;4972008;28;20232;-78
2023/07/29 08:31:05;;;;;;;5.03;1.90;;;;;;;26.45;nan;98982.19;4971958;28;20215;-79
2023/07/29 08:33:33;;;;;;;2.27;1.50;;;;;;;26.45;nan;98985.69;4968947;28;21042;-79
2023/07/29 08:35:59;;;;;;;2.60;1.93;;;;;;;26.51;nan;98977.81;4967945;28;20459;-79
2023/07/29 08:38:25;;;;;;;2.50;1.50;;;;;;;26.62;nan;98977.13;4971193;28;20927;-79
2023/07/29 08:41:09;;;;;;;2.30;1.80;;;;;;;26.83;nan;98982.16;4970479;28;20534;-79
2023/07/29 08:43:38;;;;;;;2.20;2.00;;;;;;;27.10;nan;98974.69;4970159;28;20585;-79
2023/07/29 08:46:03;;;;;;;3.93;1.80;;;;;;;27.36;nan;98978.25;4965112;28;20685;-78
2023/07/29 08:48:42;;;;;;;2.37;1.70;;;;;;;27.56;nan;98970.78;4967833;28;20560;-77
2023/07/29 08:51:09;;;;;;;3.97;2.13;;;;;;;27.68;nan;98975.44;4971115;28;20687;-78
2023/07/29 08:53:34;;;;;;;2.00;1.70;;;;;;;27.88;nan;98986.03;4971031;28;20448;-79
2023/07/29 08:56:01;;;;;;;1.90;1.70;;;;;;;28.18;nan;98976.13;4973212;28;20573;-78
2023/07/29 08:58:27;;;;;;;1.97;1.77;;;;;;;28.53;nan;98980.88;4969137;28;20494;-78
2023/07/29 09:00:53;;;;;;;2.37;1.60;;;;;;;28.59;nan;98981.81;4970427;28;20839;-77
2023/07/29 09:03:20;;;;;;;1.70;1.60;;;;;;;28.54;nan;98979.81;4970386;28;20578;-78
2023/07/29 09:05:46;;;;;;;2.73;1.60;;;;;;;28.47;nan;98983.69;4969130;28;20505;-79
2023/07/29 09:08:12;;;;;;;2.53;1.70;;;;;;;28.24;nan;98994.09;4971446;28;20566;-78
2023/07/29 09:10:37;;;;;;;2.00;1.50;;;;;;;28.02;nan;98995.63;4970887;28;20578;-78
2023/07/29 09:13:04;;;;;;;2.70;1.80;;;;;;;27.74;nan;98996.13;4970894;28;20197;-79
2023/07/29 09:15:34;;;;;;;2.17;1.50;;;;;;;27.53;nan;98995.50;4973829;28;20200;-78
2023/07/29 09:18:09;;;;;;;2.30;2.00;;;;;;;27.45;nan;98986.88;4974020;28;20486;-78
2023/07/29 09:20:35;;;;;;;2.20;2.00;;;;;;;27.44;nan;98987.94;4975330;28;20523;-78
2023/07/29 09:23:00;;;;;;;2.30;2.00;;;;;;;27.46;nan;98991.22;4974641;28;20456;-78
2023/07/29 09:25:27;;;;;;;5.70;2.20;;;;;;;27.44;nan;98979.84;4973193;28;20648;-78
2023/07/29 09:28:00;;;;;;;2.57;2.20;;;;;;;27.53;nan;98982.00;4969324;28;20732;-78
2023/07/29 09:30:25;;;;;;;1.60;1.50;;;;;;;27.92;nan;98982.69;4970720;28;20460;-77
2023/07/29 09:32:58;;;;;;;2.63;2.00;;;;;;;28.21;nan;98980.22;4974230;28;20994;-78
2023/07/29 09:35:26;;;;;;;2.13;1.80;;;;;;;28.28;nan;98970.19;4975764;28;20288;-78
2023/07/29 09:37:51;;;;;;;3.57;2.30;;;;;;;28.21;nan;98970.25;4973772;28;20444;-78
2023/07/29 09:40:18;;;;;;;2.67;1.67;;;;;;;28.08;nan;98977.69;4972824;28;20471;-78
2023/07/29 09:42:51;;;;;;;2.07;1.87;;;;;;;27.96;nan;98981.16;4974300;28;20880;-78
2023/07/29 09:45:23;;;;;;;2.03;1.80;;;;;;;27.93;nan;98987.03;4978757;28;20463;-78
2023/07/29 09:47:49;;;;;;;7.23;2.20;;;;;;;27.82;nan;98985.06;4972587;28;20483;-78
2023/07/29 09:50:15;;;;;;;1.73;1.53;;;;;;;27.77;nan;98992.97;4973330;28;20527;-78
2023/07/29 09:55:54;;;;;;;5.10;1.80;;;;;;;27.75;nan;98987.81;5545673;23;20233;-80
2023/07/29 09:58:27;;;;;;;2.77;2.57;;;;;;;27.77;nan;98991.09;4967905;28;20480;-80
2023/07/29 10:00:52;;;;;;;2.10;1.90;;;;;;;27.73;nan;98997.16;4974280;28;20294;-81
2023/07/29 10:03:21;;;;;;;4.93;2.17;;;;;;;27.66;nan;98999.94;4990414;28;20567;-80
2023/07/29 10:05:46;;;;;;;3.33;1.87;;;;;;;27.61;nan;98996.28;4991022;28;20207;-81
2023/07/29 10:08:13;;;;;;;3.93;2.50;;;;;;;27.53;nan;98992.81;4986260;28;20447;-80
2023/07/29 10:10:41;;;;;;;10.97;3.00;;;;;;;27.36;nan;99002.53;4991177;28;20204;-80
2023/07/29 10:13:07;;;;;;;4.47;2.60;;;;;;;27.24;nan;99006.97;4988416;28;20937;-80
2023/07/29 10:15:33;;;;;;;2.63;1.97;;;;;;;27.23;nan;98992.69;4990132;28;20506;-80
2023/07/29 10:18:01;;;;;;;2.40;1.83;;;;;;;27.25;nan;98993.28;4988097;28;20221;-80
2023/07/29 10:20:26;;;;;;;2.50;2.00;;;;;;;27.29;nan;99001.75;4989179;28;20697;-81
2023/07/29 10:22:56;;;;;;;2.57;2.10;;;;;;;27.28;nan;99002.81;4987644;28;20599;-82
2023/07/29 10:25:26;;;;;;;2.10;1.90;;;;;;;27.28;nan;99002.81;4977432;28;20904;-78
2023/07/29 10:28:05;;;;;;;1.60;1.50;;;;;;;27.33;nan;99003.78;4981967;28;20466;-78
2023/07/29 10:30:31;;;;;;;2.47;2.00;;;;;;;27.29;nan;98999.06;4963679;28;21130;-78
2023/07/29 10:33:01;;;;;;;3.20;2.30;;;;;;;27.23;nan;99000.75;4977901;28;20529;-78
2023/07/29 10:35:27;;;;;;;2.17;1.80;;;;;;;27.21;nan;99002.84;4978917;28;20629;-78
2023/07/29 10:37:53;;;;;;;2.40;1.60;;;;;;;27.27;nan;98993.06;4977186;28;20523;-78
2023/07/29 10:40:19;;;;;;;1.60;1.50;;;;;;;27.36;nan;98997.94;4979735;28;20460;-78
2023/07/29 10:43:03;;;;;;;2.27;2.00;;;;;;;27.47;nan;99000.97;4982659;28;20456;-78
2023/07/29 10:45:40;;;;;;;2.40;2.20;;;;;;;27.55;nan;99003.38;4978636;28;20495;-78
2023/07/29 10:48:12;;;;;;;2.43;2.10;;;;;;;27.56;nan;99002.31;4975891;28;21175;-78
2023/07/29 10:50:38;;;;;;;2.67;2.23;;;;;;;27.62;nan;98995.22;4977302;28;20470;-78
2023/07/29 10:53:04;;;;;;;3.27;2.27;;;;;;;27.74;nan;98996.13;4974716;28;20491;-78
2023/07/29 10:55:33;;;;;;;1.83;1.60;;;;;;;27.86;nan;98993.53;4975066;28;20858;-78
2023/07/29 10:58:11;;;;;;;2.63;2.43;;;;;;;27.98;nan;98995.28;4979323;28;20755;-82
2023/07/29 11:00:38;;;;;;;2.80;2.00;;;;;;;28.13;nan;98999.44;4979987;28;20507;-81
2023/07/29 11:03:07;;;;;;;3.57;2.17;;;;;;;28.28;nan;98989.09;4986103;28;20463;-82
2023/07/29 11:05:45;;;;;;;1.97;1.70;;;;;;;28.42;nan;98987.84;4985703;28;20447;-78
2023/07/29 11:08:30;;;;;;;1.77;1.67;;;;;;;28.52;nan;98986.53;4986043;28;20451;-78
2023/07/29 11:11:02;;;;;;;2.30;1.57;;;;;;;28.64;nan;98984.66;4985405;28;20475;-78
2023/07/29 11:13:28;;;;;;;3.47;1.57;;;;;;;28.78;nan;98986.09;4988099;28;20987;-78
2023/07/29 11:15:56;;;;;;;1.97;1.63;;;;;;;28.98;nan;98980.41;4984951;28;20449;-78
2023/07/29 11:18:21;;;;;;;1.87;1.60;;;;;;;29.16;nan;98975.97;4983828;28;20471;-78
2023/07/29 11:20:47;;;;;;;4.17;1.97;;;;;;;29.26;nan;98971.63;4988662;28;21003;-78
2023/07/29 11:23:13;;;;;;;1.83;1.73;;;;;;;29.42;nan;98966.59;4986677;28;20615;-78
2023/07/29 11:25:39;;;;;;;1.63;1.50;;;;;;;29.47;nan;98969.41;4986483;28;20954;-78
2023/07/29 11:28:04;;;;;;;2.00;1.90;;;;;;;29.49;nan;98961.88;4983487;28;20208;-78
2023/07/29 11:30:30;;;;;;;2.63;1.70;;;;;;;29.54;nan;98957.41;4982101;28;20208;-78
2023/07/29 11:32:57;;;;;;;1.63;1.53;;;;;;;29.52;nan;98959.53;4984802;28;20201;-78
2023/07/29 11:35:23;;;;;;;2.50;1.77;;;;;;;29.44;nan;98962.59;4987240;28;20475;-78
2023/07/29 11:37:51;;;;;;;2.00;1.60;;;;;;;29.40;nan;98966.00;4984449;28;20498;-78
2023/07/29 11:40:21;;;;;;;2.10;1.50;;;;;;;29.38;nan;98963.53;4983015;28;20466;-78
2023/07/29 11:42:50;;;;;;;1.77;1.50;;;;;;;29.36;nan;98967.53;4982189;28;20964;-78
2023/07/29 11:45:15;;;;;;;1.97;1.50;;;;;;;29.36;nan;98968.34;4985531;28;21068;-78
2023/07/29 11:47:42;;;;;;;2.50;1.43;;;;;;;29.36;nan;98973.75;4985516;28;21050;-78
2023/07/29 11:50:15;;;;;;;1.90;1.30;;;;;;;29.34;nan;98956.94;4983442;28;20197;-78
2023/07/29 11:52:42;;;;;;;1.80;1.60;;;;;;;29.23;nan;98958.59;4985875;28;20470;-78